Jordanville, New York
Current Conditions -  °F | °C
As of 1:53 PM on Thursday 30 Oct 2014 (Local Time) from KRME Reporting Station
Overcast Overcast  
Wind Chill: 42°   Ceiling: 4200
Heat Index: 47°   Visibility: 10mi
Dew Point: 37°   Wind: 12mph
Humidity: 68%   Direction: 300°WNW
Pressure: 30.03"   Gusts: NA
Location:  42.91°N, 74.95°W
Report Text: KRME 301753Z 30010KT 10SM OVC042 08/03 A3003 RMK AO2 RAB04E15 SLP169 P0000 60000 T00830028 10089 20050 57000
Loading
Personal Weather Stations






























Interactive Weather Map
Tropical Storm Tracking
New forecast layout! Learn more

10-Day Weather Forecast

Advertisements
Track Severe Weather on mobile